Mings Chapel, Texas
Current Conditions -  °F | °C
As of 1:35 PM on Thursday 27 Nov 2014 (Local Time) from KOSA Reporting Station
Clear Clear  
Wind Chill: 57°   Ceiling: Unl
Heat Index: 57°   Visibility: 7mi
Dew Point: 22°   Wind: 6mph
Humidity: 26%   Direction: 110°ESE
Pressure: 30.48"   Gusts: NA
Location:  32.7353°N, 94.9492°W
Report Text: KOSA 271935Z AUTO 11005KT 7SM CLR 14/M05 A3048 RMK AO1 T01391054
Loading
Personal Weather Stations






























Interactive Weather Map New forecast layout! Learn more

10-Day Weather Forecast

Advertisements
Track Severe Weather on mobile